createdAt,value
2019-02-10T00:00:54.642Z,18.50
2019-02-10T00:03:23.191Z,15.80
2019-02-10T00:05:52.156Z,18.33
2019-02-10T00:08:20.626Z,25.40
2019-02-10T00:10:49.363Z,17.07
2019-02-10T00:13:37.275Z,16.03
2019-02-10T00:16:31.219Z,21.40
2019-02-10T00:18:59.598Z,14.60
2019-02-10T00:21:28.311Z,18.57
2019-02-10T00:23:56.666Z,19.20
2019-02-10T00:26:25.393Z,20.17
2019-02-10T00:28:53.969Z,19.50
2019-02-10T00:31:22.487Z,18.77
2019-02-10T00:33:51.182Z,19.73
2019-02-10T00:36:19.862Z,17.87
2019-02-10T00:38:48.535Z,19.10
2019-02-10T00:41:16.921Z,18.10
2019-02-10T00:43:45.707Z,17.20
2019-02-10T00:46:14.571Z,23.43
2019-02-10T00:48:43.292Z,17.23
2019-02-10T00:51:11.843Z,19.73
2019-02-10T00:53:40.535Z,15.40
2019-02-10T00:56:09.958Z,18.83
2019-02-10T00:58:38.916Z,17.90
2019-02-10T01:01:07.303Z,18.33
2019-02-10T01:03:35.638Z,19.80
2019-02-10T01:06:04.586Z,19.57
2019-02-10T01:08:33.393Z,17.70
2019-02-10T01:11:02.069Z,19.87
2019-02-10T01:13:30.765Z,25.00
2019-02-10T01:16:00.064Z,14.70
2019-02-10T01:18:29.057Z,15.70
2019-02-10T01:20:58.027Z,17.07
2019-02-10T01:23:26.423Z,18.33
2019-02-10T01:25:55.276Z,17.53
2019-02-10T01:28:24.858Z,17.67
2019-02-10T01:30:53.672Z,13.30
2019-02-10T01:33:22.460Z,16.73
2019-02-10T01:35:51.086Z,16.17
2019-02-10T01:38:19.894Z,22.43
2019-02-10T01:40:48.515Z,20.27
2019-02-10T01:43:17.055Z,15.80
2019-02-10T01:45:46.063Z,18.33
2019-02-10T01:48:15.699Z,14.00
2019-02-10T01:50:44.603Z,15.53
2019-02-10T01:53:13.147Z,16.70
2019-02-10T01:55:41.869Z,14.37
2019-02-10T01:58:11.502Z,18.43
2019-02-10T02:00:40.408Z,14.67
2019-02-10T02:03:09.077Z,19.10
2019-02-10T02:05:37.728Z,12.07
2019-02-10T02:08:06.312Z,17.40
2019-02-10T02:10:35.002Z,18.30
2019-02-10T02:13:03.683Z,16.90
2019-02-10T02:15:32.521Z,13.43
2019-02-10T02:18:01.436Z,18.97
2019-02-10T02:20:29.867Z,17.40
2019-02-10T02:22:59.425Z,19.10
2019-02-10T02:25:27.831Z,19.97
2019-02-10T02:27:56.414Z,14.30
2019-02-10T02:30:24.869Z,15.00
2019-02-10T02:32:53.294Z,17.73
2019-02-10T02:35:21.635Z,15.30
2019-02-10T02:37:50.647Z,16.80
2019-02-10T02:40:19.007Z,15.77
2019-02-10T02:42:47.703Z,17.30
2019-02-10T02:45:16.155Z,14.40
2019-02-10T02:47:44.931Z,16.80
2019-02-10T02:50:13.926Z,17.57
2019-02-10T02:52:42.587Z,12.47
2019-02-10T02:55:12.038Z,12.17
2019-02-10T02:57:40.888Z,14.77
2019-02-10T03:02:58.940Z,14.57
2019-02-10T03:05:27.621Z,14.50
2019-02-10T03:07:56.184Z,13.87
2019-02-10T03:10:24.696Z,16.83
2019-02-10T03:12:53.180Z,13.10
2019-02-10T03:15:22.131Z,14.03
2019-02-10T03:17:51.182Z,17.97
2019-02-10T03:20:19.719Z,11.87
2019-02-10T03:22:48.324Z,10.23
2019-02-10T03:25:18.745Z,15.33
2019-02-10T03:27:47.142Z,16.13
2019-02-10T03:30:15.756Z,16.97
2019-02-10T03:32:44.150Z,14.37
2019-02-10T03:35:13.202Z,14.73
2019-02-10T03:37:41.816Z,11.70
2019-02-10T03:40:10.452Z,15.40
2019-02-10T03:42:38.883Z,11.90
2019-02-10T03:45:07.510Z,12.80
2019-02-10T03:47:35.943Z,13.03
2019-02-10T03:50:04.659Z,12.47
2019-02-10T03:52:33.387Z,12.30
2019-02-10T03:55:02.173Z,9.67
2019-02-10T03:57:31.074Z,10.43
2019-02-10T03:59:59.878Z,12.50
2019-02-10T04:02:28.700Z,10.03
2019-02-10T04:04:57.314Z,11.17
2019-02-10T04:07:25.977Z,11.57
2019-02-10T04:09:54.757Z,10.70
2019-02-10T04:12:23.342Z,13.43
2019-02-10T04:14:51.822Z,12.60
2019-02-10T04:17:20.278Z,11.13
2019-02-10T04:19:48.801Z,12.67
2019-02-10T04:22:17.326Z,13.00
2019-02-10T04:24:45.892Z,11.90
2019-02-10T04:27:14.532Z,16.73
2019-02-10T04:29:43.018Z,12.80
2019-02-10T04:32:11.376Z,12.70
2019-02-10T04:34:39.776Z,12.73
2019-02-10T04:37:08.810Z,9.87
2019-02-10T04:39:37.654Z,12.67
2019-02-10T04:42:06.447Z,12.80
2019-02-10T04:44:34.803Z,16.07
2019-02-10T04:47:03.451Z,13.90
2019-02-10T04:49:32.113Z,14.57
2019-02-10T04:52:00.543Z,12.13
2019-02-10T04:54:29.086Z,11.97
2019-02-10T04:56:57.998Z,13.07
2019-02-10T04:59:27.289Z,14.00
2019-02-10T05:01:56.282Z,10.30
2019-02-10T05:04:24.924Z,13.47
2019-02-10T05:06:53.451Z,10.90
2019-02-10T05:09:22.033Z,11.93
2019-02-10T05:11:50.900Z,16.53
2019-02-10T05:14:19.339Z,9.67
2019-02-10T05:16:47.658Z,11.57
2019-02-10T05:19:16.254Z,10.97
2019-02-10T05:21:44.935Z,13.87
2019-02-10T05:24:13.842Z,9.57
2019-02-10T05:26:42.731Z,15.33
2019-02-10T05:29:11.128Z,14.57
2019-02-10T05:31:39.819Z,11.63
2019-02-10T05:34:08.360Z,11.70
2019-02-10T05:36:38.716Z,12.23
2019-02-10T05:39:07.807Z,13.37
2019-02-10T05:41:36.403Z,12.17
2019-02-10T05:44:04.799Z,16.83
2019-02-10T05:46:33.241Z,10.03
2019-02-10T05:49:02.196Z,10.93
2019-02-10T05:51:30.922Z,12.67
2019-02-10T05:53:59.770Z,14.13
2019-02-10T05:56:28.322Z,12.80
2019-02-10T05:58:57.146Z,15.43
2019-02-10T06:01:44.981Z,10.93
2019-02-10T06:04:14.014Z,22.57
2019-02-10T06:06:42.969Z,14.67
2019-02-10T06:09:11.384Z,17.13
2019-02-10T06:11:40.379Z,13.73
2019-02-10T06:14:09.060Z,15.03
2019-02-10T06:16:37.743Z,15.17
2019-02-10T06:19:06.371Z,13.50
2019-02-10T06:21:35.003Z,15.63
2019-02-10T06:24:03.806Z,11.87
2019-02-10T06:26:32.803Z,16.63
2019-02-10T06:29:01.751Z,19.20
2019-02-10T06:31:30.059Z,12.33
2019-02-10T06:33:59.419Z,14.97
2019-02-10T06:36:27.843Z,13.23
2019-02-10T06:38:56.796Z,11.20
2019-02-10T06:41:25.314Z,15.77
2019-02-10T06:43:54.169Z,12.13
2019-02-10T06:46:22.900Z,11.87
2019-02-10T06:48:51.535Z,9.80
2019-02-10T06:51:20.272Z,12.13
2019-02-10T06:53:49.187Z,10.53
2019-02-10T06:56:17.732Z,12.50
2019-02-10T06:58:48.193Z,11.67
2019-02-10T07:01:36.521Z,14.60
2019-02-10T07:04:12.667Z,11.77
2019-02-10T07:06:41.212Z,10.23
2019-02-10T07:09:09.567Z,13.07
2019-02-10T07:11:38.264Z,10.03
2019-02-10T07:14:15.156Z,10.03
2019-02-10T07:16:55.453Z,11.43
2019-02-10T07:19:41.791Z,12.20
2019-02-10T07:22:28.527Z,13.57
2019-02-10T07:25:19.876Z,10.83
2019-02-10T07:27:48.850Z,9.83
2019-02-10T07:30:37.938Z,11.63
2019-02-10T07:33:19.558Z,13.87
2019-02-10T07:35:56.503Z,9.47
2019-02-10T07:38:56.079Z,11.37
2019-02-10T07:41:59.035Z,12.33
2019-02-10T07:44:49.702Z,10.83
2019-02-10T07:47:37.655Z,8.93
2019-02-10T07:50:11.561Z,10.63
2019-02-10T07:52:58.680Z,9.53
2019-02-10T07:55:49.791Z,10.10
2019-02-10T07:58:28.263Z,13.87
2019-02-10T08:01:19.213Z,10.17
2019-02-10T08:04:19.745Z,9.93
2019-02-10T08:06:59.183Z,8.03
2019-02-10T08:09:46.574Z,7.67
2019-02-10T08:12:34.508Z,6.57
2019-02-10T08:15:15.219Z,10.07
2019-02-10T08:17:49.837Z,9.73
2019-02-10T08:20:27.931Z,5.97
2019-02-10T08:23:17.799Z,9.17
2019-02-10T08:26:05.924Z,9.03
2019-02-10T08:28:56.772Z,8.23
2019-02-10T08:31:47.807Z,5.97
2019-02-10T08:34:28.418Z,7.37
2019-02-10T08:37:16.454Z,6.43
2019-02-10T08:40:07.419Z,9.17
2019-02-10T08:42:53.847Z,6.50
2019-02-10T08:45:32.584Z,8.07
2019-02-10T08:48:20.692Z,8.47
2019-02-10T08:51:09.579Z,8.73
2019-02-10T08:53:39.899Z,7.30
2019-02-10T08:56:08.482Z,6.77
2019-02-10T08:58:36.943Z,7.90
2019-02-10T09:01:05.647Z,5.60
2019-02-10T09:03:34.538Z,4.20
2019-02-10T09:06:03.231Z,6.20
2019-02-10T09:08:31.707Z,5.73
2019-02-10T09:11:00.123Z,6.17
2019-02-10T09:13:28.803Z,4.13
2019-02-10T09:15:57.505Z,6.00
2019-02-10T09:18:26.142Z,6.60
2019-02-10T09:20:54.731Z,6.63
2019-02-10T09:23:23.871Z,3.83
2019-02-10T09:25:52.568Z,8.07
2019-02-10T09:28:21.291Z,5.80
2019-02-10T09:30:49.926Z,6.27
2019-02-10T09:33:18.877Z,4.00
2019-02-10T09:35:48.361Z,5.67
2019-02-10T09:38:18.135Z,8.03
2019-02-10T09:40:47.131Z,6.33
2019-02-10T09:43:16.075Z,6.97
2019-02-10T09:45:44.805Z,7.77
2019-02-10T09:48:13.513Z,5.70
2019-02-10T09:50:42.204Z,4.73
2019-02-10T09:53:10.857Z,6.40
2019-02-10T09:55:39.543Z,4.87
2019-02-10T09:58:08.211Z,7.17
2019-02-10T10:00:36.615Z,6.73
2019-02-10T10:03:05.285Z,5.30
2019-02-10T10:05:34.063Z,6.57
2019-02-10T10:08:02.847Z,5.07
2019-02-10T10:10:32.438Z,6.40
2019-02-10T10:13:01.227Z,7.20
2019-02-10T10:15:29.611Z,6.87
2019-02-10T10:17:58.293Z,4.70
2019-02-10T10:20:27.259Z,9.03
2019-02-10T10:22:56.026Z,7.70
2019-02-10T10:25:24.697Z,5.50
2019-02-10T10:27:53.317Z,4.53
2019-02-10T10:30:22.337Z,5.70
2019-02-10T10:32:51.079Z,6.83
2019-02-10T10:35:20.042Z,6.40
2019-02-10T10:37:48.639Z,5.03
2019-02-10T10:40:20.109Z,5.07
2019-02-10T10:42:49.115Z,11.67
2019-02-10T10:45:18.620Z,6.33
2019-02-10T10:47:47.485Z,7.47
2019-02-10T10:50:16.489Z,8.27
2019-02-10T10:52:45.468Z,5.40
2019-02-10T10:55:14.246Z,3.80
2019-02-10T10:57:43.149Z,4.17
2019-02-10T11:00:14.379Z,5.33
2019-02-10T11:02:43.064Z,4.40
2019-02-10T11:05:11.744Z,10.90
2019-02-10T11:07:40.668Z,5.90
2019-02-10T11:10:09.263Z,7.73
2019-02-10T11:12:37.806Z,5.92
2019-02-10T11:15:07.087Z,4.37
2019-02-10T11:17:36.026Z,5.63
2019-02-10T11:20:04.811Z,3.17
2019-02-10T11:22:33.802Z,6.37
2019-02-10T11:25:03.058Z,3.73
2019-02-10T11:27:31.993Z,3.77
2019-02-10T11:30:03.985Z,3.83
2019-02-10T11:32:32.856Z,5.20
2019-02-10T11:35:01.469Z,3.40
2019-02-10T11:37:31.188Z,5.00
2019-02-10T11:40:00.343Z,5.17
2019-02-10T11:42:29.321Z,5.43
2019-02-10T11:44:59.852Z,7.20
2019-02-10T11:47:28.542Z,4.50
2019-02-10T11:49:57.316Z,4.70
2019-02-10T11:52:26.364Z,5.13
2019-02-10T11:54:55.231Z,6.23
2019-02-10T11:57:25.106Z,7.90
2019-02-10T11:59:54.575Z,5.70
2019-02-10T12:02:24.305Z,3.90
2019-02-10T12:04:53.335Z,6.37
2019-02-10T12:07:22.113Z,5.53
2019-02-10T12:09:51.914Z,5.97
2019-02-10T12:12:20.666Z,7.27
2019-02-10T12:14:49.273Z,5.30
2019-02-10T12:17:18.043Z,6.80
2019-02-10T12:19:46.991Z,5.50
2019-02-10T12:22:15.892Z,4.40
2019-02-10T12:24:47.839Z,3.70
2019-02-10T12:27:17.150Z,4.23
2019-02-10T12:29:46.033Z,5.13
2019-02-10T12:32:14.858Z,5.20
2019-02-10T12:34:43.713Z,6.80
2019-02-10T12:37:13.297Z,6.70
2019-02-10T12:39:42.653Z,5.10
2019-02-10T12:42:11.282Z,5.63
2019-02-10T12:44:40.202Z,3.13
2019-02-10T12:47:10.434Z,3.60
2019-02-10T12:49:44.165Z,4.23
2019-02-10T12:52:15.454Z,4.53
2019-02-10T12:54:43.871Z,4.43
2019-02-10T12:57:25.512Z,4.80
2019-02-10T13:00:01.918Z,7.13
2019-02-10T13:02:31.098Z,5.30
2019-02-10T13:04:59.509Z,3.80
2019-02-10T13:07:27.933Z,4.93
2019-02-10T13:09:56.850Z,5.05
2019-02-10T13:12:25.372Z,6.40
2019-02-10T13:14:56.540Z,6.60
2019-02-10T13:17:27.439Z,6.97
2019-02-10T13:20:00.518Z,3.60
2019-02-10T13:22:33.895Z,7.43
2019-02-10T13:25:03.465Z,5.37
2019-02-10T13:27:32.456Z,4.17
2019-02-10T13:30:02.555Z,5.50
2019-02-10T13:32:32.902Z,3.03
2019-02-10T13:35:04.085Z,5.83
2019-02-10T13:37:35.806Z,4.80
2019-02-10T13:40:18.111Z,8.40
2019-02-10T13:42:48.884Z,6.07
2019-02-10T13:45:18.699Z,4.77
2019-02-10T13:47:53.445Z,6.20
2019-02-10T13:50:22.141Z,6.83
2019-02-10T13:52:50.838Z,9.93
2019-02-10T13:55:24.675Z,8.10
2019-02-10T13:57:54.313Z,4.87
2019-02-10T14:00:23.470Z,6.23
2019-02-10T14:02:57.227Z,4.43
2019-02-10T14:05:26.976Z,7.40
2019-02-10T14:08:04.954Z,9.10
2019-02-10T14:10:42.403Z,7.67
2019-02-10T14:13:13.623Z,6.10
2019-02-10T14:15:43.907Z,7.20
2019-02-10T14:18:14.920Z,8.53
2019-02-10T14:20:43.439Z,9.93
2019-02-10T14:23:12.308Z,5.90
2019-02-10T14:25:40.866Z,9.20
2019-02-10T14:28:09.526Z,8.17
2019-02-10T14:30:38.333Z,7.37
2019-02-10T14:33:06.767Z,7.27
2019-02-10T14:35:37.350Z,6.30
2019-02-10T14:38:05.987Z,7.50
2019-02-10T14:40:35.350Z,5.20
2019-02-10T14:43:03.891Z,10.57
2019-02-10T14:45:34.384Z,6.27
2019-02-10T14:48:05.106Z,8.43
2019-02-10T14:50:35.246Z,6.10
2019-02-10T14:53:05.954Z,7.70
2019-02-10T14:55:38.508Z,6.90
2019-02-10T14:58:09.857Z,8.73
2019-02-10T15:00:40.339Z,8.60
2019-02-10T15:03:09.600Z,9.53
2019-02-10T15:05:39.529Z,10.53
2019-02-10T15:08:09.411Z,7.70
2019-02-10T15:10:42.206Z,8.80
2019-02-10T15:13:11.480Z,8.77
2019-02-10T15:15:41.151Z,8.53
2019-02-10T15:18:11.051Z,7.30
2019-02-10T15:20:39.629Z,11.17
2019-02-10T15:23:11.551Z,10.00
2019-02-10T15:25:41.933Z,13.90
2019-02-10T15:28:10.882Z,9.57
2019-02-10T15:30:40.672Z,11.87
2019-02-10T15:33:09.908Z,7.70
2019-02-10T15:35:40.091Z,9.57
2019-02-10T15:38:10.056Z,6.50
2019-02-10T15:40:49.845Z,10.40
2019-02-10T15:43:15.337Z,8.13
2019-02-10T15:45:45.672Z,12.13
2019-02-10T15:48:16.640Z,12.53
2019-02-10T15:50:45.859Z,12.80
2019-02-10T15:53:16.758Z,11.13
2019-02-10T15:55:46.780Z,7.93
2019-02-10T15:58:16.847Z,12.73
2019-02-10T16:00:46.265Z,7.07
2019-02-10T16:03:14.897Z,13.70
2019-02-10T16:05:44.494Z,11.60
2019-02-10T16:08:14.521Z,10.47
2019-02-10T16:10:44.679Z,16.20
2019-02-10T16:13:15.754Z,13.83
2019-02-10T16:15:46.642Z,9.93
2019-02-10T16:18:16.734Z,13.30
2019-02-10T16:20:46.645Z,16.50
2019-02-10T16:23:18.220Z,12.93
2019-02-10T16:25:48.534Z,11.53
2019-02-10T16:28:19.666Z,10.03
2019-02-10T16:30:52.665Z,11.07
2019-02-10T16:33:23.210Z,12.67
2019-02-10T16:35:53.507Z,10.83
2019-02-10T16:38:24.128Z,13.07
2019-02-10T16:40:53.998Z,10.57
2019-02-10T16:43:23.753Z,14.40
2019-02-10T16:45:53.196Z,13.60
2019-02-10T16:48:23.214Z,14.60
2019-02-10T16:50:53.859Z,14.43
2019-02-10T16:53:23.124Z,11.00
2019-02-10T16:55:53.016Z,10.60
2019-02-10T16:58:22.809Z,11.90
2019-02-10T17:00:53.962Z,16.30
2019-02-10T17:03:25.499Z,12.13
2019-02-10T17:05:56.114Z,15.85
2019-02-10T17:08:26.515Z,11.20
2019-02-10T17:10:57.963Z,16.97
2019-02-10T17:13:27.792Z,14.83
2019-02-10T17:16:05.012Z,20.90
2019-02-10T17:18:29.982Z,12.53
2019-02-10T17:21:00.070Z,14.63
2019-02-10T17:23:30.664Z,15.13
2019-02-10T17:26:01.242Z,14.57
2019-02-10T17:28:33.113Z,10.83
2019-02-10T17:31:02.475Z,11.10
2019-02-10T17:33:35.543Z,9.80
2019-02-10T17:36:06.507Z,13.83
2019-02-10T17:38:35.665Z,12.20
2019-02-10T17:41:22.601Z,12.67
2019-02-10T17:43:46.298Z,14.30
2019-02-10T17:46:15.152Z,19.87
2019-02-10T17:48:44.388Z,17.27
2019-02-10T17:51:15.442Z,16.33
2019-02-10T17:53:44.622Z,13.23
2019-02-10T17:56:13.624Z,16.17
2019-02-10T17:58:42.249Z,18.50
2019-02-10T18:01:14.679Z,14.27
2019-02-10T18:03:44.573Z,13.58
2019-02-10T18:06:13.552Z,11.57
2019-02-10T18:08:42.279Z,14.73
2019-02-10T18:11:11.030Z,13.80
2019-02-10T18:13:40.201Z,14.70
2019-02-10T18:16:28.846Z,17.53
2019-02-10T18:19:15.974Z,12.80
2019-02-10T18:22:04.421Z,10.00
2019-02-10T18:24:57.703Z,13.05
2019-02-10T18:27:40.723Z,13.23
2019-02-10T18:30:23.811Z,11.33
2019-02-10T18:33:12.469Z,13.83
2019-02-10T18:36:09.907Z,18.50
2019-02-10T18:38:58.072Z,12.17
2019-02-10T18:41:51.055Z,16.90
2019-02-10T18:44:32.536Z,12.17
2019-02-10T18:47:19.799Z,17.13
2019-02-10T18:50:06.234Z,12.10
2019-02-10T18:52:54.581Z,13.73
2019-02-10T18:55:42.007Z,18.07
2019-02-10T18:58:32.810Z,12.50
2019-02-10T19:01:33.145Z,11.83
2019-02-10T19:04:24.015Z,10.93
2019-02-10T19:07:07.298Z,12.17
2019-02-10T19:10:08.009Z,16.27
2019-02-10T19:12:52.488Z,11.10
2019-02-10T19:15:43.472Z,17.37
2019-02-10T19:18:34.358Z,14.27
2019-02-10T19:21:22.626Z,12.73
2019-02-10T19:24:10.976Z,16.67
2019-02-10T19:26:47.071Z,14.43
2019-02-10T19:29:35.376Z,17.30
2019-02-10T19:32:32.939Z,19.23
2019-02-10T19:35:13.842Z,17.33
2019-02-10T19:38:04.716Z,20.17
2019-02-10T19:40:45.320Z,16.63
2019-02-10T19:43:34.380Z,16.25
2019-02-10T19:46:20.735Z,11.57
2019-02-10T19:49:08.023Z,16.47
2019-02-10T19:52:01.842Z,18.20
2019-02-10T19:54:40.090Z,12.67
2019-02-10T19:57:34.237Z,15.30
2019-02-10T20:00:28.112Z,14.37
2019-02-10T20:03:19.223Z,15.23
2019-02-10T20:06:06.036Z,13.43
2019-02-10T20:09:01.675Z,15.87
2019-02-10T20:11:50.101Z,18.47
2019-02-10T20:14:38.041Z,15.47
2019-02-10T20:17:32.327Z,19.60
2019-02-10T20:20:20.741Z,16.70
2019-02-10T20:23:07.850Z,18.73
2019-02-10T20:25:48.375Z,15.07
2019-02-10T20:28:32.194Z,16.47
2019-02-10T20:31:29.450Z,16.17
2019-02-10T20:34:23.464Z,12.47
2019-02-10T20:37:12.211Z,18.30
2019-02-10T20:39:51.463Z,19.33
2019-02-10T20:42:28.705Z,14.60
2019-02-10T20:45:19.817Z,12.93
2019-02-10T20:48:10.933Z,12.87
2019-02-10T20:50:51.327Z,14.77
2019-02-10T20:53:33.617Z,18.87
2019-02-10T20:56:33.818Z,16.93
2019-02-10T20:59:28.002Z,17.07
2019-02-10T21:02:10.855Z,15.90
2019-02-10T21:04:47.324Z,13.00
2019-02-10T21:07:35.532Z,17.23
2019-02-10T21:10:42.311Z,14.33
2019-02-10T21:13:24.274Z,14.77
2019-02-10T21:16:10.710Z,21.12
2019-02-10T21:19:14.109Z,20.10
2019-02-10T21:22:02.444Z,15.27
2019-02-10T21:24:37.670Z,19.13
2019-02-10T21:27:28.705Z,19.23
2019-02-10T21:30:18.968Z,16.23
2019-02-10T21:33:06.013Z,18.23
2019-02-10T21:36:06.340Z,13.70
2019-02-10T21:38:57.408Z,16.77
2019-02-10T21:41:35.047Z,22.00
2019-02-10T21:44:15.611Z,15.13
2019-02-10T21:47:09.283Z,16.90
2019-02-10T21:49:38.335Z,15.47
2019-02-10T21:52:07.067Z,23.23
2019-02-10T21:54:36.058Z,13.83
2019-02-10T21:57:05.054Z,16.30
2019-02-10T21:59:34.098Z,10.50
2019-02-10T22:02:02.323Z,12.50
2019-02-10T22:04:31.417Z,13.90
2019-02-10T22:07:00.327Z,10.53
2019-02-10T22:09:28.779Z,13.67
2019-02-10T22:11:57.563Z,13.80
2019-02-10T22:14:26.368Z,12.80
2019-02-10T22:16:54.844Z,14.87
2019-02-10T22:21:00.379Z,13.10
2019-02-10T22:23:29.271Z,13.77
2019-02-10T22:25:58.346Z,11.40
2019-02-10T22:28:27.279Z,12.80
2019-02-10T22:30:56.140Z,12.50
2019-02-10T22:33:24.668Z,11.47
2019-02-10T22:35:53.406Z,12.30
2019-02-10T22:38:22.282Z,15.50
2019-02-10T22:40:51.344Z,8.00
2019-02-10T22:43:19.882Z,11.90
2019-02-10T22:45:48.692Z,9.37
2019-02-10T22:48:19.023Z,13.83
2019-02-10T22:50:47.619Z,11.03
2019-02-10T22:53:16.295Z,12.67
2019-02-10T22:55:45.290Z,12.13
2019-02-10T22:58:13.548Z,16.27
2019-02-10T23:00:49.319Z,11.67
2019-02-10T23:03:18.067Z,10.10
2019-02-10T23:05:46.765Z,10.80
2019-02-10T23:08:15.248Z,10.30
2019-02-10T23:10:44.157Z,11.43
2019-02-10T23:13:13.037Z,8.67
2019-02-10T23:15:41.835Z,13.98
2019-02-10T23:18:10.674Z,11.07
2019-02-10T23:20:39.291Z,12.00
2019-02-10T23:23:07.889Z,16.70
2019-02-10T23:25:36.839Z,12.53
2019-02-10T23:28:05.455Z,10.83
2019-02-10T23:30:34.253Z,12.17
2019-02-10T23:33:03.099Z,9.40
2019-02-10T23:35:31.708Z,12.47
2019-02-10T23:38:00.414Z,15.93
2019-02-10T23:40:29.075Z,11.23
2019-02-10T23:43:02.245Z,13.20
2019-02-10T23:45:27.831Z,10.77
2019-02-10T23:47:56.691Z,10.07
2019-02-10T23:50:25.538Z,12.87
2019-02-10T23:52:53.891Z,9.13
2019-02-10T23:55:23.543Z,10.20
2019-02-10T23:57:52.213Z,19.23
